Time,TemperatureF,DewpointF,PressureIn,WindDirection,WindDirectionDegrees,WindSpeedMPH,WindSpeedGustMPH,Humidity,HourlyPrecipIn,Conditions,Clouds,dailyrainin,SoftwareType,DateUTC
2013-07-26 00:10:00,66.2,58.8,29.95,NNW,337,6.8,-999.0,77,-99.99,,,0.00,Acu-Link.com,2013-07-26 04:10:00,
2013-07-26 00:25:00,66.2,59.1,29.95,WNW,292,4.2,-999.0,78,-99.99,,,0.00,Acu-Link.com,2013-07-26 04:25:00,
2013-07-26 00:40:00,66.0,59.3,29.95,North,0,0.0,-999.0,79,-99.99,,,0.00,Acu-Link.com,2013-07-26 04:40:00,
2013-07-26 00:55:00,66.0,59.3,29.95,NE,45,1.1,-999.0,79,-99.99,,,0.00,Acu-Link.com,2013-07-26 04:55:00,
2013-07-26 01:10:00,66.0,59.3,29.94,North,0,2.2,-999.0,79,-99.99,,,0.00,Acu-Link.com,2013-07-26 05:10:00,
2013-07-26 01:26:00,66.0,59.3,29.94,West,270,0.0,-999.0,79,-99.99,,,0.00,Acu-Link.com,2013-07-26 05:26:00,
2013-07-26 01:56:00,66.0,59.6,29.95,NNE,22,1.1,-999.0,80,-99.99,,,0.00,Acu-Link.com,2013-07-26 05:56:00,
2013-07-26 02:12:00,66.0,59.6,29.94,NW,315,1.1,-999.0,80,-99.99,,,0.00,Acu-Link.com,2013-07-26 06:12:00,
2013-07-26 02:27:00,66.0,59.6,29.95,West,270,1.1,-999.0,80,-99.99,,,0.00,Acu-Link.com,2013-07-26 06:27:00,
2013-07-26 02:42:00,66.0,59.3,29.94,NE,45,2.2,-999.0,79,-99.99,,,0.00,Acu-Link.com,2013-07-26 06:42:00,
2013-07-26 02:57:00,66.2,59.5,29.94,East,90,2.2,-999.0,79,-99.99,,,0.00,Acu-Link.com,2013-07-26 06:57:00,
2013-07-26 03:12:00,66.2,59.5,29.94,NNE,22,1.7,-999.0,79,-99.99,,,0.00,Acu-Link.com,2013-07-26 07:12:00,
2013-07-26 03:28:00,66.2,59.5,29.95,North,0,0.0,-999.0,79,-99.99,,,0.00,Acu-Link.com,2013-07-26 07:28:00,
2013-07-26 03:43:00,66.2,59.5,29.95,ESE,112,0.0,-999.0,79,-99.99,,,0.00,Acu-Link.com,2013-07-26 07:43:00,
2013-07-26 03:58:00,66.2,59.1,29.95,NNE,22,1.1,-999.0,78,-99.99,,,0.00,Acu-Link.com,2013-07-26 07:58:00,
2013-07-26 04:13:00,66.2,59.1,29.96,West,270,2.2,-999.0,78,-99.99,,,0.00,Acu-Link.com,2013-07-26 08:13:00,
2013-07-26 04:28:00,66.0,59.3,29.95,NE,45,0.0,-999.0,79,-99.99,,,0.00,Acu-Link.com,2013-07-26 08:28:00,
2013-07-26 04:43:00,66.0,58.9,29.95,ESE,112,0.0,-999.0,78,-99.99,,,0.00,Acu-Link.com,2013-07-26 08:43:00,
2013-07-26 04:59:00,66.0,58.9,29.96,ENE,67,1.7,-999.0,78,-99.99,,,0.00,Acu-Link.com,2013-07-26 08:59:00,
2013-07-26 05:14:00,66.0,58.9,29.96,NNE,22,0.0,-999.0,78,-99.99,,,0.00,Acu-Link.com,2013-07-26 09:14:00,
2013-07-26 05:29:00,66.0,59.3,29.96,NW,315,0.0,-999.0,79,-99.99,,,0.00,Acu-Link.com,2013-07-26 09:29:00,
2013-07-26 05:44:00,65.8,59.1,29.96,NE,45,0.0,-999.0,79,-99.99,,,0.00,Acu-Link.com,2013-07-26 09:44:00,
2013-07-26 05:59:00,65.8,59.1,29.97,West,270,0.0,-999.0,79,-99.99,,,0.00,Acu-Link.com,2013-07-26 09:59:00,
2013-07-26 06:15:00,65.8,59.1,29.97,North,0,0.0,-999.0,79,-99.99,,,0.00,Acu-Link.com,2013-07-26 10:15:00,
2013-07-26 06:30:00,65.8,59.1,29.97,North,0,0.0,-999.0,79,-99.99,,,0.00,Acu-Link.com,2013-07-26 10:30:00,
2013-07-26 06:45:00,65.8,59.1,29.97,SSE,157,0.0,-999.0,79,-99.99,,,0.00,Acu-Link.com,2013-07-26 10:45:00,
2013-07-26 07:00:00,66.2,59.5,29.99,North,0,0.0,-999.0,79,-99.99,,,0.00,Acu-Link.com,2013-07-26 11:00:00,
2013-07-26 07:15:00,66.7,59.6,29.99,SSW,202,0.0,-999.0,78,-99.99,,,0.00,Acu-Link.com,2013-07-26 11:15:00,
2013-07-26 07:31:00,67.3,59.8,29.99,WNW,292,0.0,-999.0,77,-99.99,,,0.00,Acu-Link.com,2013-07-26 11:31:00,
2013-07-26 08:32:00,70.3,60.8,30.01,NNE,22,2.7,-999.0,72,-99.99,,,0.00,Acu-Link.com,2013-07-26 12:32:00,
2013-07-26 08:47:00,71.4,61.1,30.00,West,270,0.0,-999.0,70,-99.99,,,0.00,Acu-Link.com,2013-07-26 12:47:00,
2013-07-26 09:02:00,73.4,61.8,30.00,NNE,22,2.2,-999.0,67,-99.99,,,0.00,Acu-Link.com,2013-07-26 13:02:00,
2013-07-26 09:17:00,75.4,62.8,30.01,NNW,337,0.0,-999.0,65,-99.99,,,0.00,Acu-Link.com,2013-07-26 13:17:00,
2013-07-26 09:32:00,74.5,61.9,30.01,NE,45,4.2,-999.0,65,-99.99,,,0.00,Acu-Link.com,2013-07-26 13:32:00,
2013-07-26 09:48:00,73.0,61.8,30.00,West,270,2.2,-999.0,68,-99.99,,,0.00,Acu-Link.com,2013-07-26 13:48:00,
2013-07-26 10:03:00,73.6,62.0,30.01,SSW,202,1.7,-999.0,67,-99.99,,,0.00,Acu-Link.com,2013-07-26 14:03:00,
2013-07-26 10:18:00,76.1,63.5,30.01,NNE,22,3.2,-999.0,65,-99.99,,,0.00,Acu-Link.com,2013-07-26 14:18:00,
2013-07-26 10:33:00,73.9,62.2,30.01,NE,45,3.7,-999.0,67,-99.99,,,0.00,Acu-Link.com,2013-07-26 14:33:00,
2013-07-26 10:48:00,75.7,63.1,30.01,South,180,4.7,-999.0,65,-99.99,,,0.00,Acu-Link.com,2013-07-26 14:48:00,
2013-07-26 11:04:00,75.9,63.3,30.01,NE,45,3.2,-999.0,65,-99.99,,,0.00,Acu-Link.com,2013-07-26 15:04:00,
2013-07-26 11:19:00,76.8,63.7,30.01,WNW,292,3.2,-999.0,64,-99.99,,,0.00,Acu-Link.com,2013-07-26 15:19:00,
2013-07-26 11:34:00,77.9,63.8,30.01,SE,135,0.0,-999.0,62,-99.99,,,0.00,Acu-Link.com,2013-07-26 15:34:00,
2013-07-26 11:49:00,79.9,65.7,30.01,NNE,22,4.2,-999.0,62,-99.99,,,0.00,Acu-Link.com,2013-07-26 15:49:00,
2013-07-26 12:04:00,78.3,63.7,30.00,ESE,112,2.2,-999.0,61,-99.99,,,0.00,Acu-Link.com,2013-07-26 16:04:00,
2013-07-26 12:20:00,78.4,63.8,30.00,ENE,67,2.2,-999.0,61,-99.99,,,0.00,Acu-Link.com,2013-07-26 16:20:00,
2013-07-26 12:35:00,80.8,65.1,30.00,NE,45,1.1,-999.0,59,-99.99,,,0.00,Acu-Link.com,2013-07-26 16:35:00,
2013-07-26 12:50:00,80.1,64.0,30.00,North,0,2.7,-999.0,58,-99.99,,,0.00,Acu-Link.com,2013-07-26 16:50:00,
2013-07-26 13:05:00,78.6,63.5,29.99,SE,135,2.2,-999.0,60,-99.99,,,0.00,Acu-Link.com,2013-07-26 17:05:00,
2013-07-26 13:21:00,77.2,62.2,29.99,NNW,337,1.1,-999.0,60,-99.99,,,0.00,Acu-Link.com,2013-07-26 17:21:00,
2013-07-26 13:36:00,82.9,65.6,29.98,ESE,112,0.0,-999.0,56,-99.99,,,0.00,Acu-Link.com,2013-07-26 17:36:00,
2013-07-26 13:51:00,81.9,64.1,29.98,NE,45,3.2,-999.0,55,-99.99,,,0.00,Acu-Link.com,2013-07-26 17:51:00,
2013-07-26 14:06:00,81.9,63.1,29.98,ESE,112,3.7,-999.0,53,-99.99,,,0.00,Acu-Link.com,2013-07-26 18:06:00,
2013-07-26 14:37:00,79.0,62.9,29.99,North,0,4.2,-999.0,58,-99.99,,,0.00,Acu-Link.com,2013-07-26 18:37:00,
2013-07-26 14:52:00,82.2,62.8,29.98,NNW,337,3.2,-999.0,52,-99.99,,,0.00,Acu-Link.com,2013-07-26 18:52:00,
2013-07-26 15:07:00,79.7,62.1,29.98,SSE,157,2.2,-999.0,55,-99.99,,,0.00,Acu-Link.com,2013-07-26 19:07:00,
2013-07-26 15:22:00,78.3,61.8,29.98,WNW,292,3.2,-999.0,57,-99.99,,,0.00,Acu-Link.com,2013-07-26 19:22:00,
2013-07-26 15:38:00,80.4,63.7,29.99,WNW,292,3.2,-999.0,57,-99.99,,,0.00,Acu-Link.com,2013-07-26 19:38:00,
2013-07-26 15:53:00,82.8,64.4,29.99,SSW,202,0.0,-999.0,54,-99.99,,,0.00,Acu-Link.com,2013-07-26 19:53:00,
2013-07-26 16:08:00,81.9,63.6,29.98,West,270,1.1,-999.0,54,-99.99,,,0.00,Acu-Link.com,2013-07-26 20:08:00,
2013-07-26 16:23:00,82.9,64.5,29.99,West,270,3.2,-999.0,54,-99.99,,,0.00,Acu-Link.com,2013-07-26 20:23:00,
2013-07-26 16:39:00,82.8,64.4,29.99,NE,45,0.0,-999.0,54,-99.99,,,0.00,Acu-Link.com,2013-07-26 20:39:00,
2013-07-26 16:54:00,80.1,62.5,29.99,ESE,112,2.2,-999.0,55,-99.99,,,0.00,Acu-Link.com,2013-07-26 20:54:00,
2013-07-26 17:09:00,82.0,63.2,29.99,ESE,112,0.0,-999.0,53,-99.99,,,0.00,Acu-Link.com,2013-07-26 21:09:00,
2013-07-26 17:24:00,81.0,63.8,29.99,NNW,337,1.7,-999.0,56,-99.99,,,0.00,Acu-Link.com,2013-07-26 21:24:00,
2013-07-26 17:39:00,83.5,65.6,29.99,ESE,112,4.2,-999.0,55,-99.99,,,0.00,Acu-Link.com,2013-07-26 21:39:00,
2013-07-26 17:55:00,81.3,64.1,29.99,SE,135,4.7,-999.0,56,-99.99,,,0.00,Acu-Link.com,2013-07-26 21:55:00,
2013-07-26 18:10:00,79.7,63.6,30.00,ESE,112,4.2,-999.0,58,-99.99,,,0.00,Acu-Link.com,2013-07-26 22:10:00,
2013-07-26 18:25:00,79.5,63.4,30.00,SE,135,3.7,-999.0,58,-99.99,,,0.00,Acu-Link.com,2013-07-26 22:25:00,
2013-07-26 18:40:00,79.5,63.4,30.00,ESE,112,3.2,-999.0,58,-99.99,,,0.00,Acu-Link.com,2013-07-26 22:40:00,
2013-07-26 18:55:00,77.9,62.4,29.99,North,0,1.7,-999.0,59,-99.99,,,0.00,Acu-Link.com,2013-07-26 22:55:00,
2013-07-26 19:11:00,76.5,62.0,30.00,SSE,157,1.7,-999.0,61,-99.99,,,0.00,Acu-Link.com,2013-07-26 23:11:00,
2013-07-26 19:41:00,74.7,62.6,30.01,SE,135,2.2,-999.0,66,-99.99,,,0.00,Acu-Link.com,2013-07-26 23:41:00,
2013-07-26 19:56:00,73.6,62.4,30.01,ESE,112,2.2,-999.0,68,-99.99,,,0.00,Acu-Link.com,2013-07-26 23:56:00,
2013-07-26 20:11:00,72.5,62.1,30.00,ESE,112,0.0,-999.0,70,-99.99,,,0.00,Acu-Link.com,2013-07-27 00:11:00,
2013-07-26 20:27:00,71.6,62.1,30.01,West,270,0.0,-999.0,72,-99.99,,,0.00,Acu-Link.com,2013-07-27 00:27:00,
2013-07-26 20:42:00,70.3,62.0,30.01,ESE,112,0.0,-999.0,75,-99.99,,,0.00,Acu-Link.com,2013-07-27 00:42:00,
2013-07-26 20:57:00,69.4,61.5,30.01,South,180,1.7,-999.0,76,-99.99,,,0.00,Acu-Link.com,2013-07-27 00:57:00,
2013-07-26 21:12:00,69.4,62.2,30.01,ESE,112,0.0,-999.0,78,-99.99,,,0.00,Acu-Link.com,2013-07-27 01:12:00,
2013-07-26 21:27:00,68.4,61.6,30.02,WSW,247,0.0,-999.0,79,-99.99,,,0.00,Acu-Link.com,2013-07-27 01:27:00,
2013-07-26 21:43:00,67.6,61.6,30.02,WSW,247,0.0,-999.0,81,-99.99,,,0.00,Acu-Link.com,2013-07-27 01:43:00,
2013-07-26 21:58:00,66.9,61.2,30.02,South,180,0.0,-999.0,82,-99.99,,,0.00,Acu-Link.com,2013-07-27 01:58:00,
2013-07-26 22:13:00,66.7,61.4,30.03,South,180,0.0,-999.0,83,-99.99,,,0.00,Acu-Link.com,2013-07-27 02:13:00,
2013-07-26 22:28:00,66.6,61.6,30.03,ESE,112,0.0,-999.0,84,-99.99,,,0.00,Acu-Link.com,2013-07-27 02:28:00,
2013-07-26 22:44:00,66.2,61.6,30.03,WNW,292,0.0,-999.0,85,-99.99,,,0.00,Acu-Link.com,2013-07-27 02:44:00,
2013-07-26 22:59:00,66.0,61.4,30.02,ESE,112,0.0,-999.0,85,-99.99,,,0.00,Acu-Link.com,2013-07-27 02:59:00,
2013-07-26 23:14:00,66.0,61.4,30.02,SSE,157,0.0,-999.0,85,-99.99,,,0.00,Acu-Link.com,2013-07-27 03:14:00,
2013-07-26 23:29:00,65.7,61.1,30.02,ESE,112,0.0,-999.0,85,-99.99,,,0.00,Acu-Link.com,2013-07-27 03:29:00,
2013-07-26 23:44:00,65.5,61.2,30.02,West,270,0.0,-999.0,86,-99.99,,,0.00,Acu-Link.com,2013-07-27 03:44:00,